sensor_id;sensor_type;location;lat;lon;timestamp;temperature;humidity
16505;HTU21D;8365;51.030;4.696;2022-08-21T00:00:26;17.98;111.11
16505;HTU21D;8365;51.030;4.696;2022-08-21T00:03:03;17.99;111.07
16505;HTU21D;8365;51.030;4.696;2022-08-21T00:05:38;17.96;111.20
16505;HTU21D;8365;51.030;4.696;2022-08-21T00:08:09;18.12;110.28
16505;HTU21D;8365;51.030;4.696;2022-08-21T00:10:40;18.09;110.18
16505;HTU21D;8365;51.030;4.696;2022-08-21T00:13:12;18.07;110.31
16505;HTU21D;8365;51.030;4.696;2022-08-21T00:15:43;18.12;109.96
16505;HTU21D;8365;51.030;4.696;2022-08-21T00:18:14;18.10;109.84
16505;HTU21D;8365;51.030;4.696;2022-08-21T00:20:46;18.14;110.05
16505;HTU21D;8365;51.030;4.696;2022-08-21T00:23:16;18.18;109.42
16505;HTU21D;8365;51.030;4.696;2022-08-21T00:25:49;18.17;109.86
16505;HTU21D;8365;51.030;4.696;2022-08-21T00:28:19;18.23;108.80
16505;HTU21D;8365;51.030;4.696;2022-08-21T00:30:50;18.19;109.17
16505;HTU21D;8365;51.030;4.696;2022-08-21T00:33:21;18.18;109.45
16505;HTU21D;8365;51.030;4.696;2022-08-21T00:35:51;18.12;109.63
16505;HTU21D;8365;51.030;4.696;2022-08-21T00:38:22;18.14;109.22
16505;HTU21D;8365;51.030;4.696;2022-08-21T00:40:56;18.08;110.36
16505;HTU21D;8365;51.030;4.696;2022-08-21T00:43:31;18.03;110.25
16505;HTU21D;8365;51.030;4.696;2022-08-21T00:46:04;17.97;111.00
16505;HTU21D;8365;51.030;4.696;2022-08-21T00:48:35;17.95;111.09
16505;HTU21D;8365;51.030;4.696;2022-08-21T00:51:09;17.93;111.43
16505;HTU21D;8365;51.030;4.696;2022-08-21T00:53:44;17.89;112.05
16505;HTU21D;8365;51.030;4.696;2022-08-21T00:56:15;17.85;111.81
16505;HTU21D;8365;51.030;4.696;2022-08-21T00:58:46;17.83;112.32
16505;HTU21D;8365;51.030;4.696;2022-08-21T01:01:18;17.79;112.57
16505;HTU21D;8365;51.030;4.696;2022-08-21T01:03:49;17.77;112.80
16505;HTU21D;8365;51.030;4.696;2022-08-21T01:06:20;17.74;112.81
16505;HTU21D;8365;51.030;4.696;2022-08-21T01:08:50;17.67;113.10
16505;HTU21D;8365;51.030;4.696;2022-08-21T01:11:21;17.52;114.29
16505;HTU21D;8365;51.030;4.696;2022-08-21T01:13:51;17.60;113.17
16505;HTU21D;8365;51.030;4.696;2022-08-21T01:16:22;17.63;113.13
16505;HTU21D;8365;51.030;4.696;2022-08-21T01:18:53;17.55;113.02
16505;HTU21D;8365;51.030;4.696;2022-08-21T01:21:26;17.55;113.49
16505;HTU21D;8365;51.030;4.696;2022-08-21T01:23:57;17.54;112.96
16505;HTU21D;8365;51.030;4.696;2022-08-21T01:26:34;17.62;112.16
16505;HTU21D;8365;51.030;4.696;2022-08-21T01:31:40;17.59;112.01
16505;HTU21D;8365;51.030;4.696;2022-08-21T01:34:11;17.54;112.26
16505;HTU21D;8365;51.030;4.696;2022-08-21T01:36:42;17.49;112.39
16505;HTU21D;8365;51.030;4.696;2022-08-21T01:39:14;17.48;112.87
16505;HTU21D;8365;51.030;4.696;2022-08-21T01:41:45;17.44;113.19
16505;HTU21D;8365;51.030;4.696;2022-08-21T01:44:15;17.38;113.34
16505;HTU21D;8365;51.030;4.696;2022-08-21T01:46:46;17.37;114.12
16505;HTU21D;8365;51.030;4.696;2022-08-21T01:49:17;17.35;113.84
16505;HTU21D;8365;51.030;4.696;2022-08-21T01:51:47;17.31;114.62
16505;HTU21D;8365;51.030;4.696;2022-08-21T01:54:18;17.24;114.32
16505;HTU21D;8365;51.030;4.696;2022-08-21T01:56:51;17.21;114.48
16505;HTU21D;8365;51.030;4.696;2022-08-21T01:59:23;17.17;115.01
16505;HTU21D;8365;51.030;4.696;2022-08-21T02:01:54;17.05;115.44
16505;HTU21D;8365;51.030;4.696;2022-08-21T02:04:25;17.05;115.17
16505;HTU21D;8365;51.030;4.696;2022-08-21T02:06:56;17.01;115.47
16505;HTU21D;8365;51.030;4.696;2022-08-21T02:09:27;16.89;115.94
16505;HTU21D;8365;51.030;4.696;2022-08-21T02:11:57;16.87;115.71
16505;HTU21D;8365;51.030;4.696;2022-08-21T02:14:29;16.79;116.21
16505;HTU21D;8365;51.030;4.696;2022-08-21T02:17:00;16.70;117.13
16505;HTU21D;8365;51.030;4.696;2022-08-21T02:19:30;16.63;117.65
16505;HTU21D;8365;51.030;4.696;2022-08-21T02:22:01;16.41;118.99
16505;HTU21D;8365;51.030;4.696;2022-08-21T02:24:31;16.49;118.99
16505;HTU21D;8365;51.030;4.696;2022-08-21T02:27:02;16.49;118.99
16505;HTU21D;8365;51.030;4.696;2022-08-21T02:29:32;16.48;118.99
16505;HTU21D;8365;51.030;4.696;2022-08-21T02:32:03;16.45;118.99
16505;HTU21D;8365;51.030;4.696;2022-08-21T02:34:33;16.44;118.99
16505;HTU21D;8365;51.030;4.696;2022-08-21T02:37:04;16.42;118.99
16505;HTU21D;8365;51.030;4.696;2022-08-21T02:39:34;16.37;118.99
16505;HTU21D;8365;51.030;4.696;2022-08-21T02:42:05;16.41;118.99
16505;HTU21D;8365;51.030;4.696;2022-08-21T02:44:35;16.36;118.99
16505;HTU21D;8365;51.030;4.696;2022-08-21T02:47:06;16.35;118.99
16505;HTU21D;8365;51.030;4.696;2022-08-21T02:49:36;16.34;118.99
16505;HTU21D;8365;51.030;4.696;2022-08-21T02:52:07;16.33;118.99
16505;HTU21D;8365;51.030;4.696;2022-08-21T02:54:37;16.28;118.99
16505;HTU21D;8365;51.030;4.696;2022-08-21T02:57:08;16.31;118.99
16505;HTU21D;8365;51.030;4.696;2022-08-21T02:59:38;16.31;118.99
16505;HTU21D;8365;51.030;4.696;2022-08-21T03:02:11;16.28;118.99
16505;HTU21D;8365;51.030;4.696;2022-08-21T03:04:41;16.28;118.99
16505;HTU21D;8365;51.030;4.696;2022-08-21T03:07:12;16.26;118.99
16505;HTU21D;8365;51.030;4.696;2022-08-21T03:09:45;16.25;118.99
16505;HTU21D;8365;51.030;4.696;2022-08-21T03:12:15;16.21;118.99
16505;HTU21D;8365;51.030;4.696;2022-08-21T03:14:45;16.20;118.99
16505;HTU21D;8365;51.030;4.696;2022-08-21T03:17:16;16.20;118.99
16505;HTU21D;8365;51.030;4.696;2022-08-21T03:19:47;16.21;118.99
16505;HTU21D;8365;51.030;4.696;2022-08-21T03:22:17;16.20;118.99
16505;HTU21D;8365;51.030;4.696;2022-08-21T03:24:48;16.17;118.99
16505;HTU21D;8365;51.030;4.696;2022-08-21T03:27:19;16.10;118.99
16505;HTU21D;8365;51.030;4.696;2022-08-21T03:29:49;16.07;118.99
16505;HTU21D;8365;51.030;4.696;2022-08-21T03:32:20;16.11;118.99
16505;HTU21D;8365;51.030;4.696;2022-08-21T03:34:50;16.05;118.99
16505;HTU21D;8365;51.030;4.696;2022-08-21T03:37:21;16.04;118.99
16505;HTU21D;8365;51.030;4.696;2022-08-21T03:39:51;15.98;118.99
16505;HTU21D;8365;51.030;4.696;2022-08-21T03:42:24;16.03;118.99
16505;HTU21D;8365;51.030;4.696;2022-08-21T03:44:55;15.91;118.99
16505;HTU21D;8365;51.030;4.696;2022-08-21T03:47:25;15.83;118.99
16505;HTU21D;8365;51.030;4.696;2022-08-21T03:49:56;15.86;118.99
16505;HTU21D;8365;51.030;4.696;2022-08-21T03:52:26;15.72;118.99
16505;HTU21D;8365;51.030;4.696;2022-08-21T03:54:57;15.52;118.99
16505;HTU21D;8365;51.030;4.696;2022-08-21T03:57:27;15.57;118.99
16505;HTU21D;8365;51.030;4.696;2022-08-21T03:59:58;15.67;118.99
16505;HTU21D;8365;51.030;4.696;2022-08-21T04:02:28;15.73;118.99
16505;HTU21D;8365;51.030;4.696;2022-08-21T04:04:59;15.82;118.99
16505;HTU21D;8365;51.030;4.696;2022-08-21T04:07:29;15.80;118.99
16505;HTU21D;8365;51.030;4.696;2022-08-21T04:10:05;15.69;118.99
16505;HTU21D;8365;51.030;4.696;2022-08-21T04:12:36;15.72;118.99
16505;HTU21D;8365;51.030;4.696;2022-08-21T04:15:06;15.62;118.99
16505;HTU21D;8365;51.030;4.696;2022-08-21T04:17:37;15.57;118.99
16505;HTU21D;8365;51.030;4.696;2022-08-21T04:20:08;15.68;118.99
16505;HTU21D;8365;51.030;4.696;2022-08-21T04:22:38;15.52;118.99
16505;HTU21D;8365;51.030;4.696;2022-08-21T04:25:09;15.58;118.99
16505;HTU21D;8365;51.030;4.696;2022-08-21T04:27:40;15.62;118.99
16505;HTU21D;8365;51.030;4.696;2022-08-21T04:30:11;15.48;118.99
16505;HTU21D;8365;51.030;4.696;2022-08-21T04:32:43;15.51;118.99
16505;HTU21D;8365;51.030;4.696;2022-08-21T04:35:16;15.60;118.99
16505;HTU21D;8365;51.030;4.696;2022-08-21T04:37:47;15.71;118.99
16505;HTU21D;8365;51.030;4.696;2022-08-21T04:40:19;15.78;118.99
16505;HTU21D;8365;51.030;4.696;2022-08-21T04:42:57;15.88;118.99
16505;HTU21D;8365;51.030;4.696;2022-08-21T04:45:32;15.89;118.99
16505;HTU21D;8365;51.030;4.696;2022-08-21T04:48:05;15.85;118.99
16505;HTU21D;8365;51.030;4.696;2022-08-21T04:50:38;15.91;118.99
16505;HTU21D;8365;51.030;4.696;2022-08-21T04:53:13;15.93;118.99
16505;HTU21D;8365;51.030;4.696;2022-08-21T04:55:44;15.98;118.99
16505;HTU21D;8365;51.030;4.696;2022-08-21T04:58:17;15.96;118.99
16505;HTU21D;8365;51.030;4.696;2022-08-21T05:00:52;15.80;118.99
16505;HTU21D;8365;51.030;4.696;2022-08-21T05:03:23;15.84;118.99
16505;HTU21D;8365;51.030;4.696;2022-08-21T05:05:54;15.71;118.99
16505;HTU21D;8365;51.030;4.696;2022-08-21T05:08:26;15.72;118.99
16505;HTU21D;8365;51.030;4.696;2022-08-21T05:10:57;15.48;118.99
16505;HTU21D;8365;51.030;4.696;2022-08-21T05:13:28;15.37;118.99
16505;HTU21D;8365;51.030;4.696;2022-08-21T05:16:01;15.42;118.99
16505;HTU21D;8365;51.030;4.696;2022-08-21T05:18:31;15.51;118.99
16505;HTU21D;8365;51.030;4.696;2022-08-21T05:21:02;15.57;118.99
16505;HTU21D;8365;51.030;4.696;2022-08-21T05:23:33;15.58;118.99
16505;HTU21D;8365;51.030;4.696;2022-08-21T05:26:04;15.56;118.99
16505;HTU21D;8365;51.030;4.696;2022-08-21T05:28:34;15.65;118.99
16505;HTU21D;8365;51.030;4.696;2022-08-21T05:31:05;15.61;118.99
16505;HTU21D;8365;51.030;4.696;2022-08-21T05:33:35;15.71;118.99
16505;HTU21D;8365;51.030;4.696;2022-08-21T05:36:06;15.76;118.99
16505;HTU21D;8365;51.030;4.696;2022-08-21T05:38:36;15.81;118.99
16505;HTU21D;8365;51.030;4.696;2022-08-21T05:41:07;15.95;118.99
16505;HTU21D;8365;51.030;4.696;2022-08-21T05:43:38;15.88;118.99
16505;HTU21D;8365;51.030;4.696;2022-08-21T05:46:08;15.89;118.99
16505;HTU21D;8365;51.030;4.696;2022-08-21T05:48:42;15.93;118.99
16505;HTU21D;8365;51.030;4.696;2022-08-21T05:51:14;16.05;118.99
16505;HTU21D;8365;51.030;4.696;2022-08-21T05:53:45;16.08;118.99
16505;HTU21D;8365;51.030;4.696;2022-08-21T05:56:16;16.16;118.99
16505;HTU21D;8365;51.030;4.696;2022-08-21T05:58:46;16.28;118.99
16505;HTU21D;8365;51.030;4.696;2022-08-21T06:01:19;16.39;118.99
16505;HTU21D;8365;51.030;4.696;2022-08-21T06:03:50;16.40;118.99
16505;HTU21D;8365;51.030;4.696;2022-08-21T06:06:20;16.43;118.99
16505;HTU21D;8365;51.030;4.696;2022-08-21T06:08:50;16.55;118.99
16505;HTU21D;8365;51.030;4.696;2022-08-21T06:11:22;16.51;118.99
16505;HTU21D;8365;51.030;4.696;2022-08-21T06:13:53;16.56;118.99
16505;HTU21D;8365;51.030;4.696;2022-08-21T06:16:23;16.62;118.99
16505;HTU21D;8365;51.030;4.696;2022-08-21T06:18:54;16.74;118.99
16505;HTU21D;8365;51.030;4.696;2022-08-21T06:21:24;16.78;118.99
16505;HTU21D;8365;51.030;4.696;2022-08-21T06:23:55;16.79;118.99
16505;HTU21D;8365;51.030;4.696;2022-08-21T06:26:28;16.74;118.99
16505;HTU21D;8365;51.030;4.696;2022-08-21T06:28:59;16.94;118.99
16505;HTU21D;8365;51.030;4.696;2022-08-21T06:31:29;17.13;118.99
16505;HTU21D;8365;51.030;4.696;2022-08-21T06:34:00;17.30;118.99
16505;HTU21D;8365;51.030;4.696;2022-08-21T06:36:30;17.26;118.99
16505;HTU21D;8365;51.030;4.696;2022-08-21T06:39:01;17.30;118.99
16505;HTU21D;8365;51.030;4.696;2022-08-21T06:41:32;17.36;118.99
16505;HTU21D;8365;51.030;4.696;2022-08-21T06:44:03;17.45;118.99
16505;HTU21D;8365;51.030;4.696;2022-08-21T06:46:33;17.59;118.99
16505;HTU21D;8365;51.030;4.696;2022-08-21T06:49:04;17.60;118.99
16505;HTU21D;8365;51.030;4.696;2022-08-21T06:51:34;17.61;118.99
16505;HTU21D;8365;51.030;4.696;2022-08-21T06:54:05;17.76;118.99
16505;HTU21D;8365;51.030;4.696;2022-08-21T06:56:35;17.87;118.99
16505;HTU21D;8365;51.030;4.696;2022-08-21T06:59:08;17.89;118.99
16505;HTU21D;8365;51.030;4.696;2022-08-21T07:01:40;17.99;118.99
16505;HTU21D;8365;51.030;4.696;2022-08-21T07:04:11;18.03;118.99
16505;HTU21D;8365;51.030;4.696;2022-08-21T07:06:42;18.05;118.99
16505;HTU21D;8365;51.030;4.696;2022-08-21T07:09:15;17.95;118.99
16505;HTU21D;8365;51.030;4.696;2022-08-21T07:11:48;18.02;118.99
16505;HTU21D;8365;51.030;4.696;2022-08-21T07:14:20;18.18;118.99
16505;HTU21D;8365;51.030;4.696;2022-08-21T07:16:51;18.29;118.99
16505;HTU21D;8365;51.030;4.696;2022-08-21T07:19:21;18.41;118.99
16505;HTU21D;8365;51.030;4.696;2022-08-21T07:21:57;18.53;118.99
16505;HTU21D;8365;51.030;4.696;2022-08-21T07:24:28;18.51;118.91
16505;HTU21D;8365;51.030;4.696;2022-08-21T07:26:59;18.38;118.99
16505;HTU21D;8365;51.030;4.696;2022-08-21T07:29:29;18.55;118.99
16505;HTU21D;8365;51.030;4.696;2022-08-21T07:32:00;18.67;118.99
16505;HTU21D;8365;51.030;4.696;2022-08-21T07:34:31;18.85;118.99
16505;HTU21D;8365;51.030;4.696;2022-08-21T07:37:03;18.93;118.99
16505;HTU21D;8365;51.030;4.696;2022-08-21T07:39:34;19.11;117.28
16505;HTU21D;8365;51.030;4.696;2022-08-21T07:42:04;18.94;118.24
16505;HTU21D;8365;51.030;4.696;2022-08-21T07:44:35;18.94;118.05
16505;HTU21D;8365;51.030;4.696;2022-08-21T07:47:05;19.17;116.29
16505;HTU21D;8365;51.030;4.696;2022-08-21T07:49:36;19.22;116.40
16505;HTU21D;8365;51.030;4.696;2022-08-21T07:52:06;19.30;115.99
16505;HTU21D;8365;51.030;4.696;2022-08-21T07:54:37;19.42;115.22
16505;HTU21D;8365;51.030;4.696;2022-08-21T07:57:07;19.61;114.38
16505;HTU21D;8365;51.030;4.696;2022-08-21T07:59:37;19.77;113.06
16505;HTU21D;8365;51.030;4.696;2022-08-21T08:02:08;19.92;111.67
16505;HTU21D;8365;51.030;4.696;2022-08-21T08:04:38;20.24;111.72
16505;HTU21D;8365;51.030;4.696;2022-08-21T08:07:09;20.41;109.58
16505;HTU21D;8365;51.030;4.696;2022-08-21T08:09:39;20.24;109.46
16505;HTU21D;8365;51.030;4.696;2022-08-21T08:12:10;20.36;109.15
16505;HTU21D;8365;51.030;4.696;2022-08-21T08:14:40;20.53;108.85
16505;HTU21D;8365;51.030;4.696;2022-08-21T08:17:11;20.37;109.91
16505;HTU21D;8365;51.030;4.696;2022-08-21T08:19:42;20.51;107.20
16505;HTU21D;8365;51.030;4.696;2022-08-21T08:22:16;20.47;108.50
16505;HTU21D;8365;51.030;4.696;2022-08-21T08:24:50;20.65;106.65
16505;HTU21D;8365;51.030;4.696;2022-08-21T08:27:22;20.86;106.28
16505;HTU21D;8365;51.030;4.696;2022-08-21T08:29:52;21.22;104.78
16505;HTU21D;8365;51.030;4.696;2022-08-21T08:32:23;21.32;103.79
16505;HTU21D;8365;51.030;4.696;2022-08-21T08:34:54;21.42;103.38
16505;HTU21D;8365;51.030;4.696;2022-08-21T08:37:24;21.54;100.83
16505;HTU21D;8365;51.030;4.696;2022-08-21T08:39:54;21.62;100.54
16505;HTU21D;8365;51.030;4.696;2022-08-21T08:42:30;21.42;100.73
16505;HTU21D;8365;51.030;4.696;2022-08-21T08:47:38;21.06;102.49
16505;HTU21D;8365;51.030;4.696;2022-08-21T08:50:19;21.01;101.70
16505;HTU21D;8365;51.030;4.696;2022-08-21T08:52:57;21.24;102.38
16505;HTU21D;8365;51.030;4.696;2022-08-21T08:55:38;21.00;101.38
16505;HTU21D;8365;51.030;4.696;2022-08-21T08:58:27;20.99;101.12
16505;HTU21D;8365;51.030;4.696;2022-08-21T09:00:59;21.35;99.00
16505;HTU21D;8365;51.030;4.696;2022-08-21T09:03:32;21.57;98.16
16505;HTU21D;8365;51.030;4.696;2022-08-21T09:06:20;21.29;100.12
16505;HTU21D;8365;51.030;4.696;2022-08-21T09:11:48;21.64;99.14
16505;HTU21D;8365;51.030;4.696;2022-08-21T09:14:37;21.98;98.33
16505;HTU21D;8365;51.030;4.696;2022-08-21T09:17:24;22.19;94.98
16505;HTU21D;8365;51.030;4.696;2022-08-21T09:23:28;22.78;90.83
16505;HTU21D;8365;51.030;4.696;2022-08-21T09:26:17;23.06;90.01
16505;HTU21D;8365;51.030;4.696;2022-08-21T09:28:53;23.54;88.28
16505;HTU21D;8365;51.030;4.696;2022-08-21T09:31:29;23.85;86.60
16505;HTU21D;8365;51.030;4.696;2022-08-21T09:34:05;24.31;84.56
16505;HTU21D;8365;51.030;4.696;2022-08-21T09:36:38;24.12;85.57
16505;HTU21D;8365;51.030;4.696;2022-08-21T09:39:11;24.14;84.01
16505;HTU21D;8365;51.030;4.696;2022-08-21T09:41:42;24.34;84.24
16505;HTU21D;8365;51.030;4.696;2022-08-21T09:44:12;23.83;83.77
16505;HTU21D;8365;51.030;4.696;2022-08-21T09:46:50;24.04;85.03
16505;HTU21D;8365;51.030;4.696;2022-08-21T09:49:33;24.57;81.97
16505;HTU21D;8365;51.030;4.696;2022-08-21T09:52:18;24.47;83.20
16505;HTU21D;8365;51.030;4.696;2022-08-21T09:54:52;24.72;83.50
16505;HTU21D;8365;51.030;4.696;2022-08-21T09:57:27;24.89;79.78
16505;HTU21D;8365;51.030;4.696;2022-08-21T10:02:49;24.28;83.07
16505;HTU21D;8365;51.030;4.696;2022-08-21T10:05:25;23.84;84.39
16505;HTU21D;8365;51.030;4.696;2022-08-21T10:07:55;23.75;85.31
16505;HTU21D;8365;51.030;4.696;2022-08-21T10:10:30;23.58;87.01
16505;HTU21D;8365;51.030;4.696;2022-08-21T10:13:30;23.69;84.18
16505;HTU21D;8365;51.030;4.696;2022-08-21T10:25:18;23.94;84.52
16505;HTU21D;8365;51.030;4.696;2022-08-21T10:27:53;23.96;85.26
16505;HTU21D;8365;51.030;4.696;2022-08-21T10:41:44;25.52;77.07
16505;HTU21D;8365;51.030;4.696;2022-08-21T10:44:39;26.21;76.08
16505;HTU21D;8365;51.030;4.696;2022-08-21T10:50:03;25.48;76.23
16505;HTU21D;8365;51.030;4.696;2022-08-21T10:55:55;24.59;82.10
16505;HTU21D;8365;51.030;4.696;2022-08-21T10:58:37;25.15;78.79
16505;HTU21D;8365;51.030;4.696;2022-08-21T11:01:15;25.50;78.41
16505;HTU21D;8365;51.030;4.696;2022-08-21T11:03:54;26.64;74.54
16505;HTU21D;8365;51.030;4.696;2022-08-21T11:06:32;26.72;73.70
16505;HTU21D;8365;51.030;4.696;2022-08-21T11:09:13;26.15;74.63
16505;HTU21D;8365;51.030;4.696;2022-08-21T11:11:47;27.21;71.41
16505;HTU21D;8365;51.030;4.696;2022-08-21T11:14:47;28.18;66.46
16505;HTU21D;8365;51.030;4.696;2022-08-21T11:17:47;27.63;68.17
16505;HTU21D;8365;51.030;4.696;2022-08-21T11:20:43;27.36;69.31
16505;HTU21D;8365;51.030;4.696;2022-08-21T11:23:19;26.58;69.85
16505;HTU21D;8365;51.030;4.696;2022-08-21T11:26:04;27.05;69.84
16505;HTU21D;8365;51.030;4.696;2022-08-21T11:28:46;27.86;64.99
16505;HTU21D;8365;51.030;4.696;2022-08-21T11:34:47;26.68;68.18
16505;HTU21D;8365;51.030;4.696;2022-08-21T11:43:42;28.38;64.30
16505;HTU21D;8365;51.030;4.696;2022-08-21T11:52:09;28.78;61.39
16505;HTU21D;8365;51.030;4.696;2022-08-21T11:54:47;29.18;57.13
16505;HTU21D;8365;51.030;4.696;2022-08-21T11:57:44;30.31;52.20
16505;HTU21D;8365;51.030;4.696;2022-08-21T12:00:28;29.34;53.91
16505;HTU21D;8365;51.030;4.696;2022-08-21T12:03:11;30.98;50.33
16505;HTU21D;8365;51.030;4.696;2022-08-21T12:05:52;32.60;44.68
16505;HTU21D;8365;51.030;4.696;2022-08-21T12:08:31;33.70;42.52
16505;HTU21D;8365;51.030;4.696;2022-08-21T12:16:41;31.52;45.56
16505;HTU21D;8365;51.030;4.696;2022-08-21T12:21:54;31.92;44.93
16505;HTU21D;8365;51.030;4.696;2022-08-21T12:27:12;31.75;44.47
16505;HTU21D;8365;51.030;4.696;2022-08-21T12:29:48;31.92;45.90
16505;HTU21D;8365;51.030;4.696;2022-08-21T12:32:44;31.85;43.60
16505;HTU21D;8365;51.030;4.696;2022-08-21T12:35:39;31.56;45.51
16505;HTU21D;8365;51.030;4.696;2022-08-21T12:38:18;32.15;43.19
16505;HTU21D;8365;51.030;4.696;2022-08-21T12:40:54;32.78;40.73
16505;HTU21D;8365;51.030;4.696;2022-08-21T12:43:41;32.13;41.61
16505;HTU21D;8365;51.030;4.696;2022-08-21T12:46:18;32.64;41.78
16505;HTU21D;8365;51.030;4.696;2022-08-21T12:48:57;33.36;41.05
16505;HTU21D;8365;51.030;4.696;2022-08-21T12:51:57;31.99;41.38
16505;HTU21D;8365;51.030;4.696;2022-08-21T12:54:32;32.23;40.69
16505;HTU21D;8365;51.030;4.696;2022-08-21T12:57:09;30.32;44.68
16505;HTU21D;8365;51.030;4.696;2022-08-21T12:59:52;30.48;46.24
16505;HTU21D;8365;51.030;4.696;2022-08-21T13:02:32;30.70;45.18
16505;HTU21D;8365;51.030;4.696;2022-08-21T13:05:06;30.93;44.27
16505;HTU21D;8365;51.030;4.696;2022-08-21T13:07:43;30.49;43.79
16505;HTU21D;8365;51.030;4.696;2022-08-21T13:10:24;29.78;45.96
16505;HTU21D;8365;51.030;4.696;2022-08-21T13:13:01;29.35;47.13
16505;HTU21D;8365;51.030;4.696;2022-08-21T13:15:35;29.32;47.54
16505;HTU21D;8365;51.030;4.696;2022-08-21T13:18:06;30.27;46.06
16505;HTU21D;8365;51.030;4.696;2022-08-21T13:20:39;30.63;45.85
16505;HTU21D;8365;51.030;4.696;2022-08-21T13:23:27;31.15;44.68
16505;HTU21D;8365;51.030;4.696;2022-08-21T13:25:57;30.16;45.48
16505;HTU21D;8365;51.030;4.696;2022-08-21T13:28:34;30.16;44.92
16505;HTU21D;8365;51.030;4.696;2022-08-21T13:31:10;30.34;45.35
16505;HTU21D;8365;51.030;4.696;2022-08-21T13:33:43;30.53;44.92
16505;HTU21D;8365;51.030;4.696;2022-08-21T13:36:20;29.13;47.21
16505;HTU21D;8365;51.030;4.696;2022-08-21T13:38:52;28.54;49.95
16505;HTU21D;8365;51.030;4.696;2022-08-21T13:41:30;29.06;49.21
16505;HTU21D;8365;51.030;4.696;2022-08-21T13:44:05;28.82;48.95
16505;HTU21D;8365;51.030;4.696;2022-08-21T13:46:36;28.93;49.06
16505;HTU21D;8365;51.030;4.696;2022-08-21T13:49:08;29.03;48.94
16505;HTU21D;8365;51.030;4.696;2022-08-21T13:51:40;29.50;45.78
16505;HTU21D;8365;51.030;4.696;2022-08-21T13:54:23;29.78;45.37
16505;HTU21D;8365;51.030;4.696;2022-08-21T13:56:56;29.82;44.72
16505;HTU21D;8365;51.030;4.696;2022-08-21T13:59:34;30.36;43.93
16505;HTU21D;8365;51.030;4.696;2022-08-21T14:02:18;31.82;41.71
16505;HTU21D;8365;51.030;4.696;2022-08-21T14:04:58;31.76;39.75
16505;HTU21D;8365;51.030;4.696;2022-08-21T14:10:14;32.52;37.02
16505;HTU21D;8365;51.030;4.696;2022-08-21T14:13:03;33.23;36.53
16505;HTU21D;8365;51.030;4.696;2022-08-21T14:15:35;34.18;34.07
16505;HTU21D;8365;51.030;4.696;2022-08-21T14:18:13;30.69;42.18
16505;HTU21D;8365;51.030;4.696;2022-08-21T14:20:44;31.73;38.44
16505;HTU21D;8365;51.030;4.696;2022-08-21T14:23:27;32.75;37.79
16505;HTU21D;8365;51.030;4.696;2022-08-21T14:26:05;33.32;36.45
16505;HTU21D;8365;51.030;4.696;2022-08-21T14:28:41;31.97;38.38
16505;HTU21D;8365;51.030;4.696;2022-08-21T14:31:17;32.99;37.10
16505;HTU21D;8365;51.030;4.696;2022-08-21T14:33:48;33.29;37.24
16505;HTU21D;8365;51.030;4.696;2022-08-21T14:36:21;34.25;34.86
16505;HTU21D;8365;51.030;4.696;2022-08-21T14:38:52;33.02;35.95
16505;HTU21D;8365;51.030;4.696;2022-08-21T14:41:24;32.42;37.26
16505;HTU21D;8365;51.030;4.696;2022-08-21T14:43:56;31.54;38.45
16505;HTU21D;8365;51.030;4.696;2022-08-21T14:46:29;30.77;40.22
16505;HTU21D;8365;51.030;4.696;2022-08-21T14:49:01;31.00;39.75
16505;HTU21D;8365;51.030;4.696;2022-08-21T14:51:32;31.90;39.51
16505;HTU21D;8365;51.030;4.696;2022-08-21T14:54:02;33.15;35.73
16505;HTU21D;8365;51.030;4.696;2022-08-21T14:56:34;32.41;36.24
16505;HTU21D;8365;51.030;4.696;2022-08-21T14:59:07;32.76;36.08
16505;HTU21D;8365;51.030;4.696;2022-08-21T15:01:38;32.48;36.83
16505;HTU21D;8365;51.030;4.696;2022-08-21T15:04:09;32.24;36.53
16505;HTU21D;8365;51.030;4.696;2022-08-21T15:06:40;31.44;37.70
16505;HTU21D;8365;51.030;4.696;2022-08-21T15:09:11;31.01;39.65
16505;HTU21D;8365;51.030;4.696;2022-08-21T15:11:41;30.49;41.10
16505;HTU21D;8365;51.030;4.696;2022-08-21T15:14:20;30.60;41.16
16505;HTU21D;8365;51.030;4.696;2022-08-21T15:16:51;30.13;42.32
16505;HTU21D;8365;51.030;4.696;2022-08-21T15:19:22;29.21;42.72
16505;HTU21D;8365;51.030;4.696;2022-08-21T15:21:53;28.95;44.02
16505;HTU21D;8365;51.030;4.696;2022-08-21T15:24:23;28.84;44.49
16505;HTU21D;8365;51.030;4.696;2022-08-21T15:26:54;28.59;45.25
16505;HTU21D;8365;51.030;4.696;2022-08-21T15:29:26;28.30;45.65
16505;HTU21D;8365;51.030;4.696;2022-08-21T15:32:02;28.06;46.95
16505;HTU21D;8365;51.030;4.696;2022-08-21T15:34:32;28.40;46.94
16505;HTU21D;8365;51.030;4.696;2022-08-21T15:37:03;28.16;47.63
16505;HTU21D;8365;51.030;4.696;2022-08-21T15:39:35;27.83;47.86
16505;HTU21D;8365;51.030;4.696;2022-08-21T15:42:06;27.45;50.01
16505;HTU21D;8365;51.030;4.696;2022-08-21T15:44:38;27.44;50.08
16505;HTU21D;8365;51.030;4.696;2022-08-21T15:47:12;27.25;50.46
16505;HTU21D;8365;51.030;4.696;2022-08-21T15:49:43;27.04;50.02
16505;HTU21D;8365;51.030;4.696;2022-08-21T15:52:17;26.86;50.18
16505;HTU21D;8365;51.030;4.696;2022-08-21T15:54:48;26.82;50.26
16505;HTU21D;8365;51.030;4.696;2022-08-21T15:57:22;26.87;50.02
16505;HTU21D;8365;51.030;4.696;2022-08-21T15:59:56;25.92;53.06
16505;HTU21D;8365;51.030;4.696;2022-08-21T16:02:30;25.73;52.18
16505;HTU21D;8365;51.030;4.696;2022-08-21T16:05:01;25.83;52.58
16505;HTU21D;8365;51.030;4.696;2022-08-21T16:07:31;25.89;52.56
16505;HTU21D;8365;51.030;4.696;2022-08-21T16:10:03;26.03;52.48
16505;HTU21D;8365;51.030;4.696;2022-08-21T16:12:41;26.20;51.16
16505;HTU21D;8365;51.030;4.696;2022-08-21T16:15:14;26.37;51.91
16505;HTU21D;8365;51.030;4.696;2022-08-21T16:17:47;26.60;52.19
16505;HTU21D;8365;51.030;4.696;2022-08-21T16:20:22;26.71;50.98
16505;HTU21D;8365;51.030;4.696;2022-08-21T16:22:55;26.72;51.48
16505;HTU21D;8365;51.030;4.696;2022-08-21T16:25:26;26.71;52.11
16505;HTU21D;8365;51.030;4.696;2022-08-21T16:27:59;26.68;52.83
16505;HTU21D;8365;51.030;4.696;2022-08-21T16:30:30;26.63;51.69
16505;HTU21D;8365;51.030;4.696;2022-08-21T16:33:03;26.39;53.18
16505;HTU21D;8365;51.030;4.696;2022-08-21T16:35:34;26.40;53.75
16505;HTU21D;8365;51.030;4.696;2022-08-21T16:38:04;26.30;52.83
16505;HTU21D;8365;51.030;4.696;2022-08-21T16:40:35;26.28;53.20
16505;HTU21D;8365;51.030;4.696;2022-08-21T16:43:08;26.40;53.78
16505;HTU21D;8365;51.030;4.696;2022-08-21T16:45:40;26.49;53.45
16505;HTU21D;8365;51.030;4.696;2022-08-21T16:48:11;26.20;53.99
16505;HTU21D;8365;51.030;4.696;2022-08-21T16:50:41;26.01;55.57
16505;HTU21D;8365;51.030;4.696;2022-08-21T16:53:12;26.08;55.68
16505;HTU21D;8365;51.030;4.696;2022-08-21T16:55:42;26.32;55.40
16505;HTU21D;8365;51.030;4.696;2022-08-21T16:58:18;26.38;55.63
16505;HTU21D;8365;51.030;4.696;2022-08-21T17:00:52;26.46;54.54
16505;HTU21D;8365;51.030;4.696;2022-08-21T17:03:34;26.49;55.27
16505;HTU21D;8365;51.030;4.696;2022-08-21T17:06:07;26.53;55.71
16505;HTU21D;8365;51.030;4.696;2022-08-21T17:08:38;26.56;55.42
16505;HTU21D;8365;51.030;4.696;2022-08-21T17:11:22;26.63;54.97